Date,TemperatureHighF,TemperatureAvgF,TemperatureLowF,DewpointHighF,DewpointAvgF,DewpointLowF,HumidityHigh,HumidityAvg,HumidityLow,PressureMaxIn,PressureMinIn,WindSpeedMaxMPH,WindSpeedAvgMPH,GustSpeedMaxMPH,PrecipitationSumIn
2013-10-1,78.3,62.3,51.3,67.4,58.2,50.8,99,88,59,30.11,30.01,7,1,13,0.01
2013-10-2,82.3,64.4,52.0,70.2,60.6,51.5,100,89,59,30.12,30.05,6,1,9,0.00
2013-10-3,81.0,66.3,56.8,72.1,64.5,56.2,100,94,71,30.10,30.03,6,1,8,0.45
2013-10-4,81.0,68.9,61.0,71.0,66.0,60.6,100,91,67,30.11,30.06,8,1,13,0.01
2013-10-5,74.3,68.1,62.0,73.8,67.3,61.7,100,97,90,30.09,29.98,5,1,8,1.15
2013-10-6,81.2,70.9,60.9,71.1,66.7,57.3,100,88,66,29.98,29.74,13,3,19,0.00
2013-10-7,60.5,53.4,44.9,57.2,48.9,43.5,97,85,64,30.15,29.76,10,3,13,1.07
2013-10-8,73.5,52.8,39.6,55.0,46.3,39.1,99,82,44,30.31,30.15,3,0,8,0.00
2013-10-9,76.2,52.6,37.2,55.8,45.4,36.7,99,81,38,30.33,30.22,3,0,5,0.01
2013-10-10,72.6,49.9,38.8,53.8,44.8,38.3,99,86,48,30.23,30.11,2,0,5,0.00
2013-10-11,76.6,57.5,42.2,61.0,49.8,41.4,99,80,39,30.14,30.05,3,0,8,0.00
2013-10-12,78.3,61.7,48.1,66.4,57.5,47.6,99,87,65,30.15,30.07,3,0,8,0.00
2013-10-13,71.4,63.3,58.6,64.3,60.6,54.7,98,91,77,30.30,30.15,3,0,3,0.03
2013-10-14,71.8,59.6,45.1,56.2,52.3,42.8,93,78,56,30.35,30.24,3,0,4,0.00
2013-10-15,67.5,56.0,42.0,63.2,54.3,40.9,98,94,85,30.26,29.97,3,0,6,0.00
2013-10-16,65.3,60.7,49.9,63.5,59.6,48.8,98,96,91,29.97,29.85,8,2,14,0.38
2013-10-17,57.0,48.7,39.8,52.1,47.3,39.1,99,95,80,29.94,29.79,5,1,6,0.42
2013-10-18,62.2,49.0,37.4,50.5,44.1,36.6,99,85,55,30.02,29.91,10,3,12,0.00
2013-10-19,53.7,44.6,40.2,49.3,43.0,38.8,99,94,82,29.96,29.74,8,2,12,0.17
2013-10-20,59.5,45.1,33.7,46.2,39.9,32.7,98,84,56,30.02,29.94,12,4,15,0.02
2013-10-21,64.5,50.5,35.5,49.1,42.2,34.7,98,76,47,30.02,29.86,11,3,16,0.00
2013-10-22,52.4,43.1,31.1,48.9,36.3,29.3,97,78,50,30.00,29.87,6,2,9,0.19
2013-10-23,42.9,39.0,33.3,40.1,35.9,31.0,97,89,73,29.95,29.77,3,1,7,0.05
2013-10-24,45.4,36.8,27.1,35.9,31.8,25.9,96,83,59,30.17,29.94,8,2,14,0.01
2013-10-25,48.9,36.6,26.6,36.4,31.4,25.4,97,83,57,30.35,30.17,6,1,8,0.00
2013-10-26,47.1,39.7,28.3,38.4,31.1,25.9,93,72,52,30.24,29.88,17,6,21,0.00
2013-10-27,56.0,38.3,25.8,40.4,32.4,24.8,98,82,50,30.10,30.00,6,1,7,0.00
2013-10-28,63.1,40.6,25.3,43.9,33.4,24.3,98,80,40,30.31,30.10,3,0,7,0.01
2013-10-29,60.3,41.7,30.2,49.5,37.5,29.5,98,87,53,30.40,30.25,2,0,4,0.00
2013-10-30,67.1,51.4,36.9,56.0,47.0,35.9,98,86,64,30.25,30.07,5,1,7,0.00
2013-10-31,66.1,61.1,57.9,60.1,58.5,56.2,98,91,76,30.07,29.37,15,7,20,0.39